sensor_id;sensor_type;location;lat;lon;timestamp;pressure;altitude;pressure_sealevel;temperature;humidity
41264;BME280;26998;48.714;9.414;2022-11-20T00:01:18;98657.34;;;5.04;100.00
41264;BME280;26998;48.714;9.414;2022-11-20T00:03:45;98664.78;;;5.01;100.00
41264;BME280;26998;48.714;9.414;2022-11-20T00:06:14;98661.66;;;4.97;100.00
41264;BME280;26998;48.714;9.414;2022-11-20T00:08:41;98666.31;;;4.87;100.00
41264;BME280;26998;48.714;9.414;2022-11-20T00:11:19;98662.84;;;4.78;100.00
41264;BME280;26998;48.714;9.414;2022-11-20T00:13:48;98663.81;;;4.69;100.00
41264;BME280;26998;48.714;9.414;2022-11-20T00:16:17;98660.19;;;4.62;100.00
41264;BME280;26998;48.714;9.414;2022-11-20T00:18:44;98660.03;;;4.55;100.00
41264;BME280;26998;48.714;9.414;2022-11-20T00:21:13;98664.28;;;4.48;100.00
41264;BME280;26998;48.714;9.414;2022-11-20T00:23:40;98657.00;;;4.42;100.00
41264;BME280;26998;48.714;9.414;2022-11-20T00:26:08;98657.66;;;4.36;100.00
41264;BME280;26998;48.714;9.414;2022-11-20T00:28:35;98658.00;;;4.33;100.00
41264;BME280;26998;48.714;9.414;2022-11-20T00:31:08;98646.75;;;4.31;100.00
41264;BME280;26998;48.714;9.414;2022-11-20T00:33:35;98645.25;;;4.28;100.00
41264;BME280;26998;48.714;9.414;2022-11-20T00:36:04;98640.63;;;4.22;100.00
41264;BME280;26998;48.714;9.414;2022-11-20T00:38:32;98639.47;;;4.25;100.00
41264;BME280;26998;48.714;9.414;2022-11-20T00:41:01;98627.91;;;4.26;100.00
41264;BME280;26998;48.714;9.414;2022-11-20T00:43:28;98630.38;;;4.27;100.00
41264;BME280;26998;48.714;9.414;2022-11-20T00:48:24;98620.44;;;4.29;100.00
41264;BME280;26998;48.714;9.414;2022-11-20T00:50:51;98618.47;;;4.31;100.00
41264;BME280;26998;48.714;9.414;2022-11-20T00:53:17;98627.91;;;4.34;100.00
41264;BME280;26998;48.714;9.414;2022-11-20T00:56:05;98617.16;;;4.35;100.00
41264;BME280;26998;48.714;9.414;2022-11-20T00:58:34;98621.47;;;4.36;100.00
41264;BME280;26998;48.714;9.414;2022-11-20T01:01:02;98616.34;;;4.43;100.00
41264;BME280;26998;48.714;9.414;2022-11-20T01:03:33;98624.75;;;4.38;100.00
41264;BME280;26998;48.714;9.414;2022-11-20T01:06:05;98631.22;;;4.44;100.00
41264;BME280;26998;48.714;9.414;2022-11-20T01:08:34;98627.75;;;4.44;100.00
41264;BME280;26998;48.714;9.414;2022-11-20T01:11:09;98635.50;;;4.45;100.00
41264;BME280;26998;48.714;9.414;2022-11-20T01:13:36;98636.38;;;4.46;100.00
41264;BME280;26998;48.714;9.414;2022-11-20T01:18:30;98635.53;;;4.53;100.00
41264;BME280;26998;48.714;9.414;2022-11-20T01:21:06;98637.84;;;4.56;100.00
41264;BME280;26998;48.714;9.414;2022-11-20T01:23:34;98643.00;;;4.58;100.00
41264;BME280;26998;48.714;9.414;2022-11-20T01:26:06;98642.00;;;4.59;100.00
41264;BME280;26998;48.714;9.414;2022-11-20T01:28:34;98642.47;;;4.62;100.00
41264;BME280;26998;48.714;9.414;2022-11-20T01:31:01;98646.13;;;4.61;100.00
41264;BME280;26998;48.714;9.414;2022-11-20T01:33:28;98657.22;;;4.65;100.00
41264;BME280;26998;48.714;9.414;2022-11-20T01:36:03;98662.81;;;4.70;100.00
41264;BME280;26998;48.714;9.414;2022-11-20T01:38:30;98673.94;;;4.74;100.00
41264;BME280;26998;48.714;9.414;2022-11-20T01:40:56;98690.47;;;4.76;100.00
41264;BME280;26998;48.714;9.414;2022-11-20T01:43:23;98684.66;;;4.72;100.00
41264;BME280;26998;48.714;9.414;2022-11-20T01:46:13;98688.81;;;4.75;100.00
41264;BME280;26998;48.714;9.414;2022-11-20T01:48:46;98686.84;;;4.77;100.00
41264;BME280;26998;48.714;9.414;2022-11-20T01:53:54;98690.63;;;4.66;100.00
41264;BME280;26998;48.714;9.414;2022-11-20T01:56:22;98686.16;;;4.67;100.00
41264;BME280;26998;48.714;9.414;2022-11-20T01:58:52;98688.16;;;4.65;100.00
41264;BME280;26998;48.714;9.414;2022-11-20T02:01:20;98682.50;;;4.59;100.00
41264;BME280;26998;48.714;9.414;2022-11-20T02:03:48;98685.16;;;4.59;100.00
41264;BME280;26998;48.714;9.414;2022-11-20T02:06:27;98679.53;;;4.54;100.00
41264;BME280;26998;48.714;9.414;2022-11-20T02:08:55;98676.38;;;4.51;100.00
41264;BME280;26998;48.714;9.414;2022-11-20T02:11:22;98681.19;;;4.47;100.00
41264;BME280;26998;48.714;9.414;2022-11-20T02:13:49;98680.50;;;4.45;100.00
41264;BME280;26998;48.714;9.414;2022-11-20T02:16:25;98681.16;;;4.39;100.00
41264;BME280;26998;48.714;9.414;2022-11-20T02:18:55;98681.31;;;4.37;100.00
41264;BME280;26998;48.714;9.414;2022-11-20T02:24:11;98700.00;;;4.28;100.00
41264;BME280;26998;48.714;9.414;2022-11-20T02:26:49;98694.34;;;4.23;100.00
41264;BME280;26998;48.714;9.414;2022-11-20T02:29:23;98697.00;;;4.23;100.00
41264;BME280;26998;48.714;9.414;2022-11-20T02:31:51;98698.00;;;4.30;100.00
41264;BME280;26998;48.714;9.414;2022-11-20T02:34:18;98696.66;;;4.26;100.00
41264;BME280;26998;48.714;9.414;2022-11-20T02:36:46;98688.25;;;4.22;100.00
41264;BME280;26998;48.714;9.414;2022-11-20T02:39:13;98692.72;;;4.22;100.00
41264;BME280;26998;48.714;9.414;2022-11-20T02:41:39;98691.72;;;4.23;100.00
41264;BME280;26998;48.714;9.414;2022-11-20T02:44:06;98687.41;;;4.22;100.00
41264;BME280;26998;48.714;9.414;2022-11-20T02:46:33;98686.59;;;4.21;100.00
41264;BME280;26998;48.714;9.414;2022-11-20T02:49:01;98688.72;;;4.18;100.00
41264;BME280;26998;48.714;9.414;2022-11-20T02:51:28;98686.22;;;4.16;100.00
41264;BME280;26998;48.714;9.414;2022-11-20T02:53:54;98691.22;;;4.19;100.00
41264;BME280;26998;48.714;9.414;2022-11-20T02:56:21;98687.06;;;4.16;100.00
41264;BME280;26998;48.714;9.414;2022-11-20T02:58:47;98690.38;;;4.19;100.00
41264;BME280;26998;48.714;9.414;2022-11-20T03:01:14;98695.34;;;4.22;100.00
41264;BME280;26998;48.714;9.414;2022-11-20T03:03:40;98689.56;;;4.26;100.00
41264;BME280;26998;48.714;9.414;2022-11-20T03:06:07;98687.41;;;4.30;100.00
41264;BME280;26998;48.714;9.414;2022-11-20T03:08:34;98681.47;;;4.36;100.00
41264;BME280;26998;48.714;9.414;2022-11-20T03:11:05;98678.81;;;4.36;100.00
41264;BME280;26998;48.714;9.414;2022-11-20T03:13:32;98691.09;;;4.37;100.00
41264;BME280;26998;48.714;9.414;2022-11-20T03:16:15;98694.69;;;4.36;100.00
41264;BME280;26998;48.714;9.414;2022-11-20T03:18:42;98690.25;;;4.36;100.00
41264;BME280;26998;48.714;9.414;2022-11-20T03:21:11;98697.34;;;4.36;100.00
41264;BME280;26998;48.714;9.414;2022-11-20T03:23:38;98693.06;;;4.35;100.00
41264;BME280;26998;48.714;9.414;2022-11-20T03:28:37;98686.94;;;4.34;100.00
41264;BME280;26998;48.714;9.414;2022-11-20T03:31:09;98688.44;;;4.37;100.00
41264;BME280;26998;48.714;9.414;2022-11-20T03:33:36;98678.50;;;4.39;100.00
41264;BME280;26998;48.714;9.414;2022-11-20T03:36:05;98686.28;;;4.40;100.00
41264;BME280;26998;48.714;9.414;2022-11-20T03:38:32;98684.78;;;4.38;100.00
41264;BME280;26998;48.714;9.414;2022-11-20T03:41:04;98684.78;;;4.38;100.00
41264;BME280;26998;48.714;9.414;2022-11-20T03:43:32;98685.16;;;4.43;100.00
41264;BME280;26998;48.714;9.414;2022-11-20T03:45:58;98692.09;;;4.44;100.00
41264;BME280;26998;48.714;9.414;2022-11-20T03:48:25;98684.81;;;4.46;100.00
41264;BME280;26998;48.714;9.414;2022-11-20T03:50:53;98686.78;;;4.44;100.00
41264;BME280;26998;48.714;9.414;2022-11-20T03:53:20;98684.81;;;4.46;100.00
41264;BME280;26998;48.714;9.414;2022-11-20T03:55:51;98690.94;;;4.47;100.00
41264;BME280;26998;48.714;9.414;2022-11-20T03:58:17;98689.91;;;4.31;100.00
41264;BME280;26998;48.714;9.414;2022-11-20T04:00:44;98690.91;;;4.30;100.00
41264;BME280;26998;48.714;9.414;2022-11-20T04:03:10;98699.16;;;4.27;100.00
41264;BME280;26998;48.714;9.414;2022-11-20T04:05:37;98700.47;;;4.23;100.00
41264;BME280;26998;48.714;9.414;2022-11-20T04:08:04;98701.31;;;4.24;100.00
41264;BME280;26998;48.714;9.414;2022-11-20T04:10:30;98695.16;;;4.23;100.00
41264;BME280;26998;48.714;9.414;2022-11-20T04:12:57;98700.16;;;4.26;100.00
41264;BME280;26998;48.714;9.414;2022-11-20T04:15:23;98695.66;;;4.27;100.00
41264;BME280;26998;48.714;9.414;2022-11-20T04:17:50;98701.47;;;4.22;100.00
41264;BME280;26998;48.714;9.414;2022-11-20T04:20:16;98689.38;;;4.20;100.00
41264;BME280;26998;48.714;9.414;2022-11-20T04:22:43;98691.69;;;4.14;100.00
41264;BME280;26998;48.714;9.414;2022-11-20T04:25:09;98682.09;;;4.13;100.00
41264;BME280;26998;48.714;9.414;2022-11-20T04:27:36;98687.06;;;4.16;100.00
41264;BME280;26998;48.714;9.414;2022-11-20T04:30:02;98682.13;;;4.22;100.00
41264;BME280;26998;48.714;9.414;2022-11-20T04:32:29;98681.81;;;4.25;100.00
41264;BME280;26998;48.714;9.414;2022-11-20T04:34:55;98679.81;;;4.27;100.00
41264;BME280;26998;48.714;9.414;2022-11-20T04:37:22;98668.56;;;4.25;100.00
41264;BME280;26998;48.714;9.414;2022-11-20T04:39:48;98659.50;;;4.27;100.00
41264;BME280;26998;48.714;9.414;2022-11-20T04:42:15;98641.47;;;4.31;100.00
41264;BME280;26998;48.714;9.414;2022-11-20T04:44:41;98622.63;;;4.34;100.00
41264;BME280;26998;48.714;9.414;2022-11-20T04:47:08;98596.00;;;4.35;100.00
41264;BME280;26998;48.714;9.414;2022-11-20T04:49:34;98583.09;;;4.40;100.00
41264;BME280;26998;48.714;9.414;2022-11-20T04:52:01;98559.97;;;4.43;100.00
41264;BME280;26998;48.714;9.414;2022-11-20T04:54:28;98276.66;;;4.44;100.00
41264;BME280;26998;48.714;9.414;2022-11-20T04:56:54;98275.97;;;4.50;100.00
41264;BME280;26998;48.714;9.414;2022-11-20T04:59:21;98275.13;;;4.50;100.00
41264;BME280;26998;48.714;9.414;2022-11-20T05:01:48;98272.50;;;4.50;100.00
41264;BME280;26998;48.714;9.414;2022-11-20T05:04:14;98270.16;;;4.55;100.00
41264;BME280;26998;48.714;9.414;2022-11-20T05:06:41;98270.97;;;4.55;100.00
41264;BME280;26998;48.714;9.414;2022-11-20T05:09:08;98267.78;;;4.60;100.00
41264;BME280;26998;48.714;9.414;2022-11-20T05:11:36;98261.03;;;4.57;100.00
41264;BME280;26998;48.714;9.414;2022-11-20T05:14:02;98271.09;;;4.62;100.00
41264;BME280;26998;48.714;9.414;2022-11-20T05:16:29;98263.16;;;4.62;100.00
41264;BME280;26998;48.714;9.414;2022-11-20T05:18:55;98264.13;;;4.61;100.00
41264;BME280;26998;48.714;9.414;2022-11-20T05:21:22;98264.81;;;4.63;100.00
41264;BME280;26998;48.714;9.414;2022-11-20T05:23:48;98273.09;;;4.60;100.00
41264;BME280;26998;48.714;9.414;2022-11-20T05:26:21;98270.28;;;4.61;100.00
41264;BME280;26998;48.714;9.414;2022-11-20T05:28:49;98278.84;;;4.63;100.00
41264;BME280;26998;48.714;9.414;2022-11-20T05:31:20;98271.56;;;4.66;100.00
41264;BME280;26998;48.714;9.414;2022-11-20T05:33:53;98272.41;;;4.66;100.00
41264;BME280;26998;48.714;9.414;2022-11-20T05:36:20;98269.09;;;4.64;100.00
41264;BME280;26998;48.714;9.414;2022-11-20T05:38:47;98268.56;;;4.69;100.00
41264;BME280;26998;48.714;9.414;2022-11-20T05:41:18;98270.34;;;4.76;100.00
41264;BME280;26998;48.714;9.414;2022-11-20T05:43:46;98261.56;;;4.76;100.00
41264;BME280;26998;48.714;9.414;2022-11-20T05:46:15;98259.41;;;4.79;100.00
41264;BME280;26998;48.714;9.414;2022-11-20T05:48:43;98259.69;;;4.84;100.00
41264;BME280;26998;48.714;9.414;2022-11-20T05:51:13;98251.59;;;4.86;100.00
41264;BME280;26998;48.714;9.414;2022-11-20T05:53:40;98260.88;;;4.82;100.00
41264;BME280;26998;48.714;9.414;2022-11-20T05:56:16;98262.53;;;4.83;100.00
41264;BME280;26998;48.714;9.414;2022-11-20T05:58:43;98259.00;;;4.91;100.00
41264;BME280;26998;48.714;9.414;2022-11-20T06:01:14;98259.81;;;4.91;100.00
41264;BME280;26998;48.714;9.414;2022-11-20T06:03:42;98257.81;;;4.93;100.00
41264;BME280;26998;48.714;9.414;2022-11-20T06:06:09;98254.81;;;4.96;100.00
41264;BME280;26998;48.714;9.414;2022-11-20T06:08:35;98264.41;;;4.97;100.00
41264;BME280;26998;48.714;9.414;2022-11-20T06:11:06;98261.75;;;4.97;100.00
41264;BME280;26998;48.714;9.414;2022-11-20T06:13:32;98259.47;;;4.94;100.00
41264;BME280;26998;48.714;9.414;2022-11-20T06:16:04;98257.81;;;4.93;100.00
41264;BME280;26998;48.714;9.414;2022-11-20T06:18:32;98264.75;;;4.94;100.00
41264;BME280;26998;48.714;9.414;2022-11-20T06:23:33;98255.09;;;5.01;100.00
41264;BME280;26998;48.714;9.414;2022-11-20T06:26:01;98255.94;;;5.02;100.00
41264;BME280;26998;48.714;9.414;2022-11-20T06:28:28;98265.69;;;5.01;100.00
41264;BME280;26998;48.714;9.414;2022-11-20T06:30:54;98262.06;;;5.02;100.00
41264;BME280;26998;48.714;9.414;2022-11-20T06:33:21;98264.38;;;5.05;100.00
41264;BME280;26998;48.714;9.414;2022-11-20T06:35:48;98267.47;;;5.09;100.00
41264;BME280;26998;48.714;9.414;2022-11-20T06:38:14;98265.69;;;5.01;100.00
41264;BME280;26998;48.714;9.414;2022-11-20T06:40:41;98268.34;;;5.01;100.00
41264;BME280;26998;48.714;9.414;2022-11-20T06:43:09;98264.53;;;5.04;100.00
41264;BME280;26998;48.714;9.414;2022-11-20T06:45:36;98273.63;;;5.01;100.00
41264;BME280;26998;48.714;9.414;2022-11-20T06:48:03;98271.28;;;5.06;100.00
41264;BME280;26998;48.714;9.414;2022-11-20T06:50:30;98270.63;;;5.04;100.00
41264;BME280;26998;48.714;9.414;2022-11-20T06:53:00;98270.84;;;5.03;100.00
41264;BME280;26998;48.714;9.414;2022-11-20T06:55:27;98271.66;;;5.03;100.00
41264;BME280;26998;48.714;9.414;2022-11-20T06:57:53;98272.31;;;5.05;100.00
41264;BME280;26998;48.714;9.414;2022-11-20T07:00:21;98276.44;;;5.08;100.00
41264;BME280;26998;48.714;9.414;2022-11-20T07:02:48;98278.44;;;5.06;100.00
41264;BME280;26998;48.714;9.414;2022-11-20T07:05:14;98275.13;;;5.04;100.00
41264;BME280;26998;48.714;9.414;2022-11-20T07:07:40;98280.78;;;5.01;100.00
41264;BME280;26998;48.714;9.414;2022-11-20T07:10:07;98276.13;;;5.03;100.00
41264;BME280;26998;48.714;9.414;2022-11-20T07:12:34;98271.84;;;5.02;100.00
41264;BME280;26998;48.714;9.414;2022-11-20T07:15:01;98282.44;;;5.02;100.00
41264;BME280;26998;48.714;9.414;2022-11-20T07:17:27;98283.72;;;5.06;100.00
41264;BME280;26998;48.714;9.414;2022-11-20T07:19:54;98278.44;;;5.06;100.00
41264;BME280;26998;48.714;9.414;2022-11-20T07:22:20;98286.84;;;5.09;100.00
41264;BME280;26998;48.714;9.414;2022-11-20T07:24:48;98288.31;;;5.12;100.00
41264;BME280;26998;48.714;9.414;2022-11-20T07:27:14;98291.00;;;5.04;100.00
41264;BME280;26998;48.714;9.414;2022-11-20T07:29:41;98293.31;;;5.07;100.00
41264;BME280;26998;48.714;9.414;2022-11-20T07:32:07;98292.31;;;5.08;100.00
41264;BME280;26998;48.714;9.414;2022-11-20T07:34:35;98284.31;;;5.16;100.00
41264;BME280;26998;48.714;9.414;2022-11-20T07:37:02;98293.38;;;5.22;100.00
41264;BME280;26998;48.714;9.414;2022-11-20T07:39:35;98294.84;;;5.24;100.00
41264;BME280;26998;48.714;9.414;2022-11-20T07:42:01;98295.59;;;5.33;100.00
41264;BME280;26998;48.714;9.414;2022-11-20T07:44:28;98296.06;;;5.37;100.00
41264;BME280;26998;48.714;9.414;2022-11-20T07:46:54;98296.22;;;5.35;100.00
41264;BME280;26998;48.714;9.414;2022-11-20T07:49:21;98298.16;;;5.41;100.00
41264;BME280;26998;48.714;9.414;2022-11-20T07:51:50;98300.00;;;5.41;100.00
41264;BME280;26998;48.714;9.414;2022-11-20T07:54:17;98295.25;;;5.36;100.00
41264;BME280;26998;48.714;9.414;2022-11-20T07:56:43;98300.72;;;5.35;100.00
41264;BME280;26998;48.714;9.414;2022-11-20T07:59:10;98294.41;;;5.36;100.00
41264;BME280;26998;48.714;9.414;2022-11-20T08:01:37;98297.00;;;5.44;100.00
41264;BME280;26998;48.714;9.414;2022-11-20T08:04:03;98292.47;;;5.52;100.00
41264;BME280;26998;48.714;9.414;2022-11-20T08:06:30;98293.00;;;5.63;100.00
41264;BME280;26998;48.714;9.414;2022-11-20T08:08:57;98294.28;;;5.67;100.00
41264;BME280;26998;48.714;9.414;2022-11-20T08:11:23;98307.38;;;5.68;100.00
41264;BME280;26998;48.714;9.414;2022-11-20T08:13:49;98305.91;;;5.66;100.00
41264;BME280;26998;48.714;9.414;2022-11-20T08:16:16;98299.16;;;5.78;100.00
41264;BME280;26998;48.714;9.414;2022-11-20T08:18:43;98310.19;;;5.67;100.00
41264;BME280;26998;48.714;9.414;2022-11-20T08:21:09;98308.75;;;5.64;100.00
41264;BME280;26998;48.714;9.414;2022-11-20T08:23:36;98297.97;;;5.66;100.00
41264;BME280;26998;48.714;9.414;2022-11-20T08:26:02;98311.22;;;5.66;100.00
41264;BME280;26998;48.714;9.414;2022-11-20T08:28:29;98313.03;;;5.65;100.00
41264;BME280;26998;48.714;9.414;2022-11-20T08:31:02;98316.31;;;5.52;100.00
41264;BME280;26998;48.714;9.414;2022-11-20T08:33:29;98312.47;;;5.55;100.00
41264;BME280;26998;48.714;9.414;2022-11-20T08:36:03;98323.53;;;5.59;100.00
41264;BME280;26998;48.714;9.414;2022-11-20T08:38:30;98322.53;;;5.60;100.00
41264;BME280;26998;48.714;9.414;2022-11-20T08:41:01;98326.66;;;5.62;100.00
41264;BME280;26998;48.714;9.414;2022-11-20T08:43:28;98329.41;;;5.69;100.00
41264;BME280;26998;48.714;9.414;2022-11-20T08:45:56;98320.28;;;5.71;100.00
41264;BME280;26998;48.714;9.414;2022-11-20T08:48:23;98324.13;;;5.69;100.00
41264;BME280;26998;48.714;9.414;2022-11-20T08:50:49;98331.19;;;5.76;100.00
41264;BME280;26998;48.714;9.414;2022-11-20T08:53:16;98330.06;;;5.71;100.00
41264;BME280;26998;48.714;9.414;2022-11-20T08:55:42;98322.19;;;5.63;100.00
41264;BME280;26998;48.714;9.414;2022-11-20T08:58:09;98320.63;;;5.68;100.00
41264;BME280;26998;48.714;9.414;2022-11-20T09:00:35;98318.81;;;5.69;100.00
41264;BME280;26998;48.714;9.414;2022-11-20T09:03:02;98320.75;;;5.75;100.00
41264;BME280;26998;48.714;9.414;2022-11-20T09:05:28;98321.56;;;5.75;100.00
41264;BME280;26998;48.714;9.414;2022-11-20T09:07:56;98324.22;;;5.75;100.00
41264;BME280;26998;48.714;9.414;2022-11-20T09:10:23;98320.38;;;5.78;100.00
41264;BME280;26998;48.714;9.414;2022-11-20T09:12:53;98322.03;;;5.79;100.00
41264;BME280;26998;48.714;9.414;2022-11-20T09:15:19;98326.97;;;5.82;100.00
41264;BME280;26998;48.714;9.414;2022-11-20T09:17:53;98325.78;;;5.85;100.00
41264;BME280;26998;48.714;9.414;2022-11-20T09:20:19;98330.38;;;5.91;100.00
41264;BME280;26998;48.714;9.414;2022-11-20T09:22:46;98322.81;;;6.03;100.00
41264;BME280;26998;48.714;9.414;2022-11-20T09:25:13;98331.88;;;6.08;100.00
41264;BME280;26998;48.714;9.414;2022-11-20T09:27:40;98329.78;;;6.18;100.00
41264;BME280;26998;48.714;9.414;2022-11-20T09:30:07;98331.16;;;6.14;100.00
41264;BME280;26998;48.714;9.414;2022-11-20T09:32:33;98333.63;;;6.16;100.00
41264;BME280;26998;48.714;9.414;2022-11-20T09:35:00;98329.78;;;6.18;100.00
41264;BME280;26998;48.714;9.414;2022-11-20T09:37:27;98325.13;;;6.20;100.00
41264;BME280;26998;48.714;9.414;2022-11-20T09:39:53;98333.25;;;6.19;100.00
41264;BME280;26998;48.714;9.414;2022-11-20T09:48:03;98335.53;;;6.22;100.00
41264;BME280;26998;48.714;9.414;2022-11-20T09:50:53;98343.88;;;6.19;100.00
41264;BME280;26998;48.714;9.414;2022-11-20T09:53:58;98340.84;;;6.22;100.00
41264;BME280;26998;48.714;9.414;2022-11-20T09:56:28;98342.50;;;6.23;100.00
41264;BME280;26998;48.714;9.414;2022-11-20T09:58:58;98346.25;;;6.29;100.00
41264;BME280;26998;48.714;9.414;2022-11-20T10:01:30;98339.22;;;6.21;100.00
41264;BME280;26998;48.714;9.414;2022-11-20T10:04:02;98345.53;;;6.20;100.00
41264;BME280;26998;48.714;9.414;2022-11-20T10:06:30;98346.16;;;6.22;100.00
41264;BME280;26998;48.714;9.414;2022-11-20T10:14:33;98347.25;;;6.28;100.00
41264;BME280;26998;48.714;9.414;2022-11-20T10:17:13;98344.03;;;6.32;100.00
41264;BME280;26998;48.714;9.414;2022-11-20T10:23:00;98341.31;;;6.40;100.00
41264;BME280;26998;48.714;9.414;2022-11-20T10:25:38;98340.22;;;6.35;100.00
41264;BME280;26998;48.714;9.414;2022-11-20T10:30:55;98341.59;;;6.45;100.00
41264;BME280;26998;48.714;9.414;2022-11-20T10:33:25;98337.19;;;6.53;100.00
41264;BME280;26998;48.714;9.414;2022-11-20T10:36:20;98347.72;;;6.46;100.00
41264;BME280;26998;48.714;9.414;2022-11-20T10:39:00;98336.66;;;6.42;100.00
41264;BME280;26998;48.714;9.414;2022-11-20T10:41:34;98336.91;;;6.47;100.00
41264;BME280;26998;48.714;9.414;2022-11-20T10:44:22;98340.03;;;6.51;100.00
41264;BME280;26998;48.714;9.414;2022-11-20T10:46:49;98341.22;;;6.48;100.00
41264;BME280;26998;48.714;9.414;2022-11-20T10:49:17;98333.44;;;6.47;100.00
41264;BME280;26998;48.714;9.414;2022-11-20T10:55:06;98348.75;;;6.45;100.00
41264;BME280;26998;48.714;9.414;2022-11-20T11:00:16;98339.09;;;6.29;100.00
41264;BME280;26998;48.714;9.414;2022-11-20T11:02:51;98344.16;;;6.24;100.00
41264;BME280;26998;48.714;9.414;2022-11-20T11:05:25;98360.44;;;6.21;100.00
41264;BME280;26998;48.714;9.414;2022-11-20T11:07:55;98349.00;;;6.20;100.00
41264;BME280;26998;48.714;9.414;2022-11-20T11:13:24;98334.06;;;6.19;100.00
41264;BME280;26998;48.714;9.414;2022-11-20T11:15:52;98335.66;;;6.14;100.00
41264;BME280;26998;48.714;9.414;2022-11-20T11:18:32;98336.63;;;6.13;100.00
41264;BME280;26998;48.714;9.414;2022-11-20T11:21:02;98339.47;;;6.11;100.00
41264;BME280;26998;48.714;9.414;2022-11-20T11:23:35;98337.00;;;6.10;100.00
41264;BME280;26998;48.714;9.414;2022-11-20T11:26:06;98330.41;;;6.06;100.00
41264;BME280;26998;48.714;9.414;2022-11-20T11:28:33;98332.06;;;6.07;100.00
41264;BME280;26998;48.714;9.414;2022-11-20T11:30:59;98330.22;;;6.07;100.00
41264;BME280;26998;48.714;9.414;2022-11-20T11:33:28;98325.13;;;6.06;100.00
41264;BME280;26998;48.714;9.414;2022-11-20T11:36:00;98325.56;;;6.09;100.00
41264;BME280;26998;48.714;9.414;2022-11-20T11:38:32;98319.09;;;6.12;100.00
41264;BME280;26998;48.714;9.414;2022-11-20T11:41:02;98312.38;;;6.16;100.00
41264;BME280;26998;48.714;9.414;2022-11-20T11:43:32;98311.94;;;6.27;100.00
41264;BME280;26998;48.714;9.414;2022-11-20T11:46:13;98307.38;;;6.36;100.00
41264;BME280;26998;48.714;9.414;2022-11-20T11:48:58;98303.13;;;6.56;100.00
41264;BME280;26998;48.714;9.414;2022-11-20T11:51:29;98287.97;;;6.71;100.00
41264;BME280;26998;48.714;9.414;2022-11-20T11:54:00;98290.47;;;6.73;100.00
41264;BME280;26998;48.714;9.414;2022-11-20T11:56:30;98290.72;;;6.78;100.00
41264;BME280;26998;48.714;9.414;2022-11-20T11:59:02;98281.28;;;6.76;100.00
41264;BME280;26998;48.714;9.414;2022-11-20T12:06:50;98273.38;;;7.04;100.00
41264;BME280;26998;48.714;9.414;2022-11-20T12:09:18;98263.84;;;7.31;100.00
41264;BME280;26998;48.714;9.414;2022-11-20T12:11:53;98257.19;;;7.42;100.00
41264;BME280;26998;48.714;9.414;2022-11-20T12:14:22;98262.88;;;7.95;100.00
41264;BME280;26998;48.714;9.414;2022-11-20T12:16:54;98253.59;;;8.60;100.00
41264;BME280;26998;48.714;9.414;2022-11-20T12:19:23;98251.19;;;8.85;100.00
41264;BME280;26998;48.714;9.414;2022-11-20T12:30:32;98239.72;;;7.89;100.00
41264;BME280;26998;48.714;9.414;2022-11-20T12:44:16;98214.47;;;8.19;100.00
41264;BME280;26998;48.714;9.414;2022-11-20T12:49:48;98225.28;;;8.04;100.00
41264;BME280;26998;48.714;9.414;2022-11-20T12:52:35;98229.50;;;7.92;100.00
41264;BME280;26998;48.714;9.414;2022-11-20T13:00:23;98230.84;;;7.81;100.00
41264;BME280;26998;48.714;9.414;2022-11-20T13:03:05;98229.91;;;7.89;100.00
41264;BME280;26998;48.714;9.414;2022-11-20T13:05:43;98226.19;;;7.90;100.00
41264;BME280;26998;48.714;9.414;2022-11-20T13:08:23;98223.72;;;7.82;100.00
41264;BME280;26998;48.714;9.414;2022-11-20T13:14:04;98211.47;;;7.94;100.00
41264;BME280;26998;48.714;9.414;2022-11-20T13:19:04;98217.31;;;8.11;100.00
41264;BME280;26998;48.714;9.414;2022-11-20T13:21:37;98205.44;;;8.07;100.00
41264;BME280;26998;48.714;9.414;2022-11-20T13:24:19;98209.47;;;8.03;100.00
41264;BME280;26998;48.714;9.414;2022-11-20T13:26:47;98210.91;;;7.99;100.00
41264;BME280;26998;48.714;9.414;2022-11-20T13:29:19;98213.31;;;7.94;100.00
41264;BME280;26998;48.714;9.414;2022-11-20T13:31:47;98213.06;;;7.82;100.00
41264;BME280;26998;48.714;9.414;2022-11-20T13:34:25;98201.44;;;7.90;100.00
41264;BME280;26998;48.714;9.414;2022-11-20T13:36:55;98202.03;;;8.26;100.00
41264;BME280;26998;48.714;9.414;2022-11-20T13:39:31;98200.09;;;8.62;100.00
41264;BME280;26998;48.714;9.414;2022-11-20T13:42:18;98191.53;;;8.93;100.00
41264;BME280;26998;48.714;9.414;2022-11-20T13:44:48;98192.47;;;8.39;100.00
41264;BME280;26998;48.714;9.414;2022-11-20T13:47:27;98203.88;;;8.32;100.00
41264;BME280;26998;48.714;9.414;2022-11-20T13:49:55;98199.38;;;8.26;100.00
41264;BME280;26998;48.714;9.414;2022-11-20T13:55:24;98185.16;;;8.67;100.00
41264;BME280;26998;48.714;9.414;2022-11-20T14:00:55;98186.66;;;8.28;100.00
41264;BME280;26998;48.714;9.414;2022-11-20T14:03:24;98185.41;;;8.24;100.00
41264;BME280;26998;48.714;9.414;2022-11-20T14:06:25;98181.66;;;8.05;100.00
41264;BME280;26998;48.714;9.414;2022-11-20T14:08:51;98176.75;;;8.09;100.00
41264;BME280;26998;48.714;9.414;2022-11-20T14:11:23;98174.47;;;7.99;100.00
41264;BME280;26998;48.714;9.414;2022-11-20T14:13:57;98179.00;;;8.05;100.00
41264;BME280;26998;48.714;9.414;2022-11-20T14:16:27;98170.25;;;8.25;100.00
41264;BME280;26998;48.714;9.414;2022-11-20T14:18:54;98178.66;;;8.22;100.00
41264;BME280;26998;48.714;9.414;2022-11-20T14:21:29;98171.19;;;8.52;100.00
41264;BME280;26998;48.714;9.414;2022-11-20T14:24:05;98174.88;;;8.51;100.00
41264;BME280;26998;48.714;9.414;2022-11-20T14:26:32;98172.34;;;8.36;100.00
41264;BME280;26998;48.714;9.414;2022-11-20T14:28:59;98179.66;;;8.14;100.00
41264;BME280;26998;48.714;9.414;2022-11-20T14:31:27;98182.41;;;7.93;100.00
41264;BME280;26998;48.714;9.414;2022-11-20T14:33:54;98183.34;;;7.78;100.00
41264;BME280;26998;48.714;9.414;2022-11-20T14:36:23;98179.41;;;7.61;100.00
41264;BME280;26998;48.714;9.414;2022-11-20T14:38:52;98181.59;;;7.51;100.00